sensor_id;sensor_type;location;lat;lon;timestamp;P1;durP1;ratioP1;P2;durP2;ratioP2
32964;SDS011;19317;48.226;11.686;2023-03-01T00:03:51;14.40;;;10.57;;
32964;SDS011;19317;48.226;11.686;2023-03-01T00:08:42;14.23;;;10.83;;
32964;SDS011;19317;48.226;11.686;2023-03-01T00:13:34;13.50;;;9.97;;
32964;SDS011;19317;48.226;11.686;2023-03-01T00:18:24;12.33;;;9.87;;
32964;SDS011;19317;48.226;11.686;2023-03-01T00:23:15;11.17;;;8.87;;
32964;SDS011;19317;48.226;11.686;2023-03-01T00:28:05;12.23;;;9.83;;
32964;SDS011;19317;48.226;11.686;2023-03-01T00:32:56;13.37;;;10.60;;
32964;SDS011;19317;48.226;11.686;2023-03-01T00:37:46;14.57;;;9.97;;
32964;SDS011;19317;48.226;11.686;2023-03-01T00:42:37;12.80;;;10.27;;
32964;SDS011;19317;48.226;11.686;2023-03-01T00:47:28;13.43;;;9.97;;
32964;SDS011;19317;48.226;11.686;2023-03-01T00:52:19;14.90;;;10.40;;
32964;SDS011;19317;48.226;11.686;2023-03-01T00:57:09;12.67;;;9.93;;
32964;SDS011;19317;48.226;11.686;2023-03-01T01:02:00;13.97;;;10.73;;
32964;SDS011;19317;48.226;11.686;2023-03-01T01:06:50;14.53;;;10.30;;
32964;SDS011;19317;48.226;11.686;2023-03-01T01:11:41;13.80;;;10.37;;
32964;SDS011;19317;48.226;11.686;2023-03-01T01:16:31;13.87;;;10.07;;
32964;SDS011;19317;48.226;11.686;2023-03-01T01:21:23;15.63;;;10.97;;
32964;SDS011;19317;48.226;11.686;2023-03-01T01:26:18;12.63;;;10.00;;
32964;SDS011;19317;48.226;11.686;2023-03-01T01:31:10;14.63;;;10.77;;
32964;SDS011;19317;48.226;11.686;2023-03-01T01:36:01;14.73;;;9.77;;
32964;SDS011;19317;48.226;11.686;2023-03-01T01:40:52;14.77;;;10.27;;
32964;SDS011;19317;48.226;11.686;2023-03-01T01:45:42;13.67;;;9.80;;
32964;SDS011;19317;48.226;11.686;2023-03-01T01:50:33;12.97;;;10.13;;
32964;SDS011;19317;48.226;11.686;2023-03-01T01:55:26;14.67;;;9.73;;
32964;SDS011;19317;48.226;11.686;2023-03-01T02:00:18;13.30;;;9.77;;
32964;SDS011;19317;48.226;11.686;2023-03-01T02:05:13;15.37;;;10.47;;
32964;SDS011;19317;48.226;11.686;2023-03-01T02:10:10;12.70;;;9.63;;
32964;SDS011;19317;48.226;11.686;2023-03-01T02:15:00;16.03;;;10.83;;
32964;SDS011;19317;48.226;11.686;2023-03-01T02:30:31;13.13;;;9.70;;
32964;SDS011;19317;48.226;11.686;2023-03-01T02:35:22;12.83;;;9.43;;
32964;SDS011;19317;48.226;11.686;2023-03-01T02:40:14;14.17;;;9.73;;
32964;SDS011;19317;48.226;11.686;2023-03-01T02:45:08;14.17;;;10.10;;
32964;SDS011;19317;48.226;11.686;2023-03-01T02:49:59;15.07;;;10.13;;
32964;SDS011;19317;48.226;11.686;2023-03-01T02:54:54;13.57;;;10.00;;
32964;SDS011;19317;48.226;11.686;2023-03-01T03:00:06;15.97;;;11.03;;
32964;SDS011;19317;48.226;11.686;2023-03-01T03:04:59;13.43;;;10.07;;
32964;SDS011;19317;48.226;11.686;2023-03-01T03:09:49;13.43;;;11.10;;
32964;SDS011;19317;48.226;11.686;2023-03-01T03:14:40;15.83;;;11.63;;
32964;SDS011;19317;48.226;11.686;2023-03-01T03:19:30;14.93;;;10.23;;
32964;SDS011;19317;48.226;11.686;2023-03-01T03:24:21;13.87;;;10.27;;
32964;SDS011;19317;48.226;11.686;2023-03-01T03:29:11;14.90;;;10.80;;
32964;SDS011;19317;48.226;11.686;2023-03-01T03:34:02;15.03;;;10.57;;
32964;SDS011;19317;48.226;11.686;2023-03-01T03:38:52;13.50;;;9.90;;
32964;SDS011;19317;48.226;11.686;2023-03-01T03:43:43;14.27;;;11.07;;
32964;SDS011;19317;48.226;11.686;2023-03-01T03:48:34;13.33;;;9.67;;
32964;SDS011;19317;48.226;11.686;2023-03-01T03:53:29;13.70;;;10.23;;
32964;SDS011;19317;48.226;11.686;2023-03-01T03:58:21;16.07;;;10.40;;
32964;SDS011;19317;48.226;11.686;2023-03-01T04:03:13;14.10;;;9.87;;
32964;SDS011;19317;48.226;11.686;2023-03-01T04:08:05;13.20;;;9.73;;
32964;SDS011;19317;48.226;11.686;2023-03-01T04:12:57;13.23;;;9.97;;
32964;SDS011;19317;48.226;11.686;2023-03-01T04:17:47;13.90;;;10.07;;
32964;SDS011;19317;48.226;11.686;2023-03-01T04:22:38;13.27;;;10.13;;
32964;SDS011;19317;48.226;11.686;2023-03-01T04:27:29;13.73;;;10.20;;
32964;SDS011;19317;48.226;11.686;2023-03-01T04:32:20;13.90;;;10.00;;
32964;SDS011;19317;48.226;11.686;2023-03-01T04:37:10;13.60;;;10.47;;
32964;SDS011;19317;48.226;11.686;2023-03-01T04:42:01;14.30;;;10.20;;
32964;SDS011;19317;48.226;11.686;2023-03-01T04:46:51;12.90;;;9.30;;
32964;SDS011;19317;48.226;11.686;2023-03-01T04:51:41;14.30;;;10.57;;
32964;SDS011;19317;48.226;11.686;2023-03-01T04:56:32;13.80;;;9.80;;
32964;SDS011;19317;48.226;11.686;2023-03-01T05:01:22;13.97;;;9.90;;
32964;SDS011;19317;48.226;11.686;2023-03-01T05:06:13;14.33;;;10.40;;
32964;SDS011;19317;48.226;11.686;2023-03-01T05:11:05;14.30;;;10.57;;
32964;SDS011;19317;48.226;11.686;2023-03-01T05:15:56;14.20;;;10.40;;
32964;SDS011;19317;48.226;11.686;2023-03-01T05:20:49;14.27;;;10.30;;
32964;SDS011;19317;48.226;11.686;2023-03-01T05:25:39;14.53;;;9.70;;
32964;SDS011;19317;48.226;11.686;2023-03-01T05:30:33;14.53;;;10.00;;
32964;SDS011;19317;48.226;11.686;2023-03-01T05:35:24;13.90;;;10.20;;
32964;SDS011;19317;48.226;11.686;2023-03-01T05:40:16;15.30;;;10.43;;
32964;SDS011;19317;48.226;11.686;2023-03-01T05:45:13;13.43;;;10.53;;
32964;SDS011;19317;48.226;11.686;2023-03-01T05:50:04;14.90;;;10.27;;
32964;SDS011;19317;48.226;11.686;2023-03-01T05:54:55;13.03;;;10.10;;
32964;SDS011;19317;48.226;11.686;2023-03-01T05:59:45;14.00;;;9.90;;
32964;SDS011;19317;48.226;11.686;2023-03-01T06:04:36;16.87;;;9.93;;
32964;SDS011;19317;48.226;11.686;2023-03-01T06:09:26;13.90;;;10.20;;
32964;SDS011;19317;48.226;11.686;2023-03-01T06:14:17;14.23;;;10.37;;
32964;SDS011;19317;48.226;11.686;2023-03-01T06:19:07;13.10;;;9.90;;
32964;SDS011;19317;48.226;11.686;2023-03-01T06:23:58;15.17;;;10.00;;
32964;SDS011;19317;48.226;11.686;2023-03-01T06:28:48;14.33;;;9.83;;
32964;SDS011;19317;48.226;11.686;2023-03-01T06:33:39;16.40;;;10.13;;
32964;SDS011;19317;48.226;11.686;2023-03-01T06:38:29;15.87;;;10.43;;
32964;SDS011;19317;48.226;11.686;2023-03-01T06:43:20;14.20;;;10.07;;
32964;SDS011;19317;48.226;11.686;2023-03-01T06:48:11;13.87;;;10.37;;
32964;SDS011;19317;48.226;11.686;2023-03-01T06:53:02;14.03;;;10.60;;
32964;SDS011;19317;48.226;11.686;2023-03-01T06:57:56;15.50;;;10.53;;
32964;SDS011;19317;48.226;11.686;2023-03-01T07:02:51;14.27;;;10.83;;
32964;SDS011;19317;48.226;11.686;2023-03-01T07:07:41;17.57;;;10.87;;
32964;SDS011;19317;48.226;11.686;2023-03-01T07:12:32;15.37;;;11.07;;
32964;SDS011;19317;48.226;11.686;2023-03-01T07:17:23;14.93;;;10.47;;
32964;SDS011;19317;48.226;11.686;2023-03-01T07:22:13;13.53;;;10.17;;
32964;SDS011;19317;48.226;11.686;2023-03-01T07:27:04;14.13;;;10.87;;
32964;SDS011;19317;48.226;11.686;2023-03-01T07:31:54;16.23;;;10.97;;
32964;SDS011;19317;48.226;11.686;2023-03-01T07:36:45;16.17;;;10.53;;
32964;SDS011;19317;48.226;11.686;2023-03-01T07:41:35;16.10;;;11.20;;
32964;SDS011;19317;48.226;11.686;2023-03-01T07:46:26;15.63;;;10.90;;
32964;SDS011;19317;48.226;11.686;2023-03-01T07:51:16;13.90;;;10.57;;
32964;SDS011;19317;48.226;11.686;2023-03-01T07:56:08;14.87;;;10.17;;
32964;SDS011;19317;48.226;11.686;2023-03-01T08:01:01;15.73;;;11.77;;
32964;SDS011;19317;48.226;11.686;2023-03-01T08:05:52;18.30;;;11.97;;
32964;SDS011;19317;48.226;11.686;2023-03-01T08:10:43;15.47;;;10.50;;
32964;SDS011;19317;48.226;11.686;2023-03-01T08:15:33;19.33;;;11.10;;
32964;SDS011;19317;48.226;11.686;2023-03-01T08:20:23;16.50;;;11.60;;
32964;SDS011;19317;48.226;11.686;2023-03-01T08:25:14;17.60;;;12.30;;
32964;SDS011;19317;48.226;11.686;2023-03-01T08:30:05;18.13;;;11.47;;
32964;SDS011;19317;48.226;11.686;2023-03-01T08:34:56;17.60;;;11.73;;
32964;SDS011;19317;48.226;11.686;2023-03-01T08:39:46;14.90;;;10.93;;
32964;SDS011;19317;48.226;11.686;2023-03-01T08:44:37;16.23;;;11.87;;
32964;SDS011;19317;48.226;11.686;2023-03-01T08:49:27;18.27;;;11.47;;
32964;SDS011;19317;48.226;11.686;2023-03-01T08:54:19;17.07;;;11.47;;
32964;SDS011;19317;48.226;11.686;2023-03-01T08:59:11;14.83;;;11.10;;
32964;SDS011;19317;48.226;11.686;2023-03-01T09:04:03;18.30;;;11.97;;
32964;SDS011;19317;48.226;11.686;2023-03-01T09:08:54;19.07;;;12.00;;
32964;SDS011;19317;48.226;11.686;2023-03-01T09:13:44;17.67;;;12.37;;
32964;SDS011;19317;48.226;11.686;2023-03-01T09:18:36;18.07;;;11.60;;
32964;SDS011;19317;48.226;11.686;2023-03-01T09:23:26;16.73;;;11.77;;
32964;SDS011;19317;48.226;11.686;2023-03-01T09:28:17;16.50;;;11.93;;
32964;SDS011;19317;48.226;11.686;2023-03-01T09:33:07;18.13;;;12.50;;
32964;SDS011;19317;48.226;11.686;2023-03-01T09:37:58;18.97;;;11.80;;
32964;SDS011;19317;48.226;11.686;2023-03-01T09:42:51;17.73;;;12.23;;
32964;SDS011;19317;48.226;11.686;2023-03-01T09:47:45;18.70;;;12.63;;
32964;SDS011;19317;48.226;11.686;2023-03-01T09:52:38;17.80;;;12.93;;
32964;SDS011;19317;48.226;11.686;2023-03-01T10:12:48;18.53;;;13.53;;
32964;SDS011;19317;48.226;11.686;2023-03-01T10:17:41;19.07;;;13.07;;
32964;SDS011;19317;48.226;11.686;2023-03-01T10:22:39;19.20;;;13.77;;
32964;SDS011;19317;48.226;11.686;2023-03-01T10:32:51;17.90;;;12.13;;
32964;SDS011;19317;48.226;11.686;2023-03-01T10:37:56;19.57;;;12.47;;
32964;SDS011;19317;48.226;11.686;2023-03-01T10:42:54;19.83;;;12.53;;
32964;SDS011;19317;48.226;11.686;2023-03-01T10:48:00;17.43;;;12.40;;
32964;SDS011;19317;48.226;11.686;2023-03-01T10:58:31;16.87;;;12.60;;
32964;SDS011;19317;48.226;11.686;2023-03-01T11:03:25;18.70;;;12.63;;
32964;SDS011;19317;48.226;11.686;2023-03-01T11:13:28;17.77;;;12.30;;
32964;SDS011;19317;48.226;11.686;2023-03-01T11:18:20;18.37;;;13.50;;
32964;SDS011;19317;48.226;11.686;2023-03-01T11:23:12;18.27;;;13.20;;
32964;SDS011;19317;48.226;11.686;2023-03-01T11:28:05;17.87;;;12.53;;
32964;SDS011;19317;48.226;11.686;2023-03-01T11:38:41;17.50;;;12.77;;
32964;SDS011;19317;48.226;11.686;2023-03-01T11:53:39;16.43;;;12.00;;
32964;SDS011;19317;48.226;11.686;2023-03-01T11:58:39;19.27;;;12.83;;
32964;SDS011;19317;48.226;11.686;2023-03-01T12:08:49;17.33;;;12.90;;
32964;SDS011;19317;48.226;11.686;2023-03-01T12:24:31;19.33;;;12.83;;
32964;SDS011;19317;48.226;11.686;2023-03-01T12:34:55;17.47;;;12.50;;
32964;SDS011;19317;48.226;11.686;2023-03-01T12:39:55;18.17;;;12.60;;
32964;SDS011;19317;48.226;11.686;2023-03-01T12:44:57;15.30;;;11.23;;
32964;SDS011;19317;48.226;11.686;2023-03-01T12:55:29;16.00;;;12.07;;
32964;SDS011;19317;48.226;11.686;2023-03-01T13:00:35;17.67;;;12.37;;
32964;SDS011;19317;48.226;11.686;2023-03-01T13:11:00;14.60;;;11.60;;
32964;SDS011;19317;48.226;11.686;2023-03-01T13:15:53;17.03;;;12.30;;
32964;SDS011;19317;48.226;11.686;2023-03-01T13:20:48;14.23;;;11.70;;
32964;SDS011;19317;48.226;11.686;2023-03-01T13:30:54;16.03;;;12.90;;
32964;SDS011;19317;48.226;11.686;2023-03-01T13:35:45;17.47;;;12.70;;
32964;SDS011;19317;48.226;11.686;2023-03-01T13:45:34;16.93;;;12.17;;
32964;SDS011;19317;48.226;11.686;2023-03-01T13:50:33;14.90;;;10.97;;
32964;SDS011;19317;48.226;11.686;2023-03-01T13:55:37;15.47;;;11.27;;
32964;SDS011;19317;48.226;11.686;2023-03-01T14:00:33;14.43;;;11.07;;
32964;SDS011;19317;48.226;11.686;2023-03-01T14:05:26;14.43;;;10.20;;
32964;SDS011;19317;48.226;11.686;2023-03-01T14:10:16;14.13;;;10.57;;
32964;SDS011;19317;48.226;11.686;2023-03-01T14:20:19;14.70;;;10.97;;
32964;SDS011;19317;48.226;11.686;2023-03-01T14:25:20;14.93;;;11.20;;
32964;SDS011;19317;48.226;11.686;2023-03-01T14:30:19;14.90;;;11.17;;
32964;SDS011;19317;48.226;11.686;2023-03-01T14:35:19;15.20;;;10.40;;
32964;SDS011;19317;48.226;11.686;2023-03-01T14:40:19;13.93;;;10.83;;
32964;SDS011;19317;48.226;11.686;2023-03-01T14:45:21;13.83;;;10.50;;
32964;SDS011;19317;48.226;11.686;2023-03-01T14:50:18;13.03;;;9.93;;
32964;SDS011;19317;48.226;11.686;2023-03-01T14:55:28;13.40;;;10.87;;
32964;SDS011;19317;48.226;11.686;2023-03-01T15:00:25;13.30;;;9.90;;
32964;SDS011;19317;48.226;11.686;2023-03-01T15:05:18;11.80;;;9.53;;
32964;SDS011;19317;48.226;11.686;2023-03-01T15:10:17;11.73;;;9.93;;
32964;SDS011;19317;48.226;11.686;2023-03-01T15:15:21;13.83;;;10.77;;
32964;SDS011;19317;48.226;11.686;2023-03-01T15:20:18;13.40;;;9.97;;
32964;SDS011;19317;48.226;11.686;2023-03-01T15:25:14;14.27;;;10.13;;
32964;SDS011;19317;48.226;11.686;2023-03-01T15:30:06;11.60;;;8.90;;
32964;SDS011;19317;48.226;11.686;2023-03-01T15:40:29;10.93;;;8.83;;
32964;SDS011;19317;48.226;11.686;2023-03-01T15:45:21;13.00;;;9.47;;
32964;SDS011;19317;48.226;11.686;2023-03-01T15:50:18;11.67;;;9.53;;
32964;SDS011;19317;48.226;11.686;2023-03-01T16:00:11;12.60;;;9.07;;
32964;SDS011;19317;48.226;11.686;2023-03-01T16:05:02;10.13;;;8.07;;
32964;SDS011;19317;48.226;11.686;2023-03-01T16:09:53;10.87;;;9.13;;
32964;SDS011;19317;48.226;11.686;2023-03-01T16:14:43;12.30;;;8.40;;
32964;SDS011;19317;48.226;11.686;2023-03-01T16:19:33;10.80;;;8.33;;
32964;SDS011;19317;48.226;11.686;2023-03-01T16:24:24;12.00;;;8.70;;
32964;SDS011;19317;48.226;11.686;2023-03-01T16:29:14;11.07;;;8.43;;
32964;SDS011;19317;48.226;11.686;2023-03-01T16:34:05;11.90;;;7.50;;
32964;SDS011;19317;48.226;11.686;2023-03-01T16:38:57;11.00;;;8.30;;
32964;SDS011;19317;48.226;11.686;2023-03-01T16:43:49;10.60;;;8.20;;
32964;SDS011;19317;48.226;11.686;2023-03-01T16:48:40;8.57;;;6.97;;
32964;SDS011;19317;48.226;11.686;2023-03-01T16:53:31;9.37;;;7.07;;
32964;SDS011;19317;48.226;11.686;2023-03-01T16:58:21;9.57;;;7.80;;
32964;SDS011;19317;48.226;11.686;2023-03-01T17:03:12;9.87;;;7.37;;
32964;SDS011;19317;48.226;11.686;2023-03-01T17:08:02;9.70;;;6.67;;
32964;SDS011;19317;48.226;11.686;2023-03-01T17:12:53;10.77;;;6.80;;
32964;SDS011;19317;48.226;11.686;2023-03-01T17:17:44;8.27;;;6.77;;
32964;SDS011;19317;48.226;11.686;2023-03-01T17:22:34;10.03;;;6.77;;
32964;SDS011;19317;48.226;11.686;2023-03-01T17:27:25;10.30;;;6.60;;
32964;SDS011;19317;48.226;11.686;2023-03-01T17:32:15;8.43;;;6.10;;
32964;SDS011;19317;48.226;11.686;2023-03-01T17:37:06;8.63;;;5.63;;
32964;SDS011;19317;48.226;11.686;2023-03-01T17:41:56;8.03;;;6.07;;
32964;SDS011;19317;48.226;11.686;2023-03-01T17:46:47;10.10;;;6.23;;
32964;SDS011;19317;48.226;11.686;2023-03-01T17:51:37;10.30;;;5.83;;
32964;SDS011;19317;48.226;11.686;2023-03-01T17:56:28;10.70;;;6.93;;
32964;SDS011;19317;48.226;11.686;2023-03-01T18:01:19;8.03;;;5.63;;
32964;SDS011;19317;48.226;11.686;2023-03-01T18:06:14;8.73;;;6.70;;
32964;SDS011;19317;48.226;11.686;2023-03-01T18:11:24;10.20;;;6.40;;
32964;SDS011;19317;48.226;11.686;2023-03-01T18:16:15;8.73;;;6.73;;
32964;SDS011;19317;48.226;11.686;2023-03-01T18:21:07;10.83;;;8.27;;
32964;SDS011;19317;48.226;11.686;2023-03-01T18:25:59;10.87;;;8.77;;
32964;SDS011;19317;48.226;11.686;2023-03-01T18:30:57;12.93;;;8.97;;
32964;SDS011;19317;48.226;11.686;2023-03-01T18:35:48;12.47;;;9.13;;
32964;SDS011;19317;48.226;11.686;2023-03-01T18:40:40;16.37;;;8.77;;
32964;SDS011;19317;48.226;11.686;2023-03-01T18:45:31;13.30;;;9.73;;
32964;SDS011;19317;48.226;11.686;2023-03-01T18:50:22;12.77;;;9.37;;
32964;SDS011;19317;48.226;11.686;2023-03-01T18:55:12;10.97;;;8.47;;
32964;SDS011;19317;48.226;11.686;2023-03-01T19:00:03;13.77;;;9.33;;
32964;SDS011;19317;48.226;11.686;2023-03-01T19:04:54;13.70;;;8.57;;
32964;SDS011;19317;48.226;11.686;2023-03-01T19:09:44;12.23;;;8.63;;
32964;SDS011;19317;48.226;11.686;2023-03-01T19:14:35;14.23;;;8.27;;
32964;SDS011;19317;48.226;11.686;2023-03-01T19:19:25;12.37;;;9.23;;
32964;SDS011;19317;48.226;11.686;2023-03-01T19:24:15;12.57;;;9.57;;
32964;SDS011;19317;48.226;11.686;2023-03-01T19:29:06;11.03;;;8.03;;
32964;SDS011;19317;48.226;11.686;2023-03-01T19:33:57;11.73;;;8.43;;
32964;SDS011;19317;48.226;11.686;2023-03-01T19:38:48;10.87;;;8.03;;
32964;SDS011;19317;48.226;11.686;2023-03-01T19:43:38;14.13;;;8.23;;
32964;SDS011;19317;48.226;11.686;2023-03-01T19:48:29;14.57;;;8.77;;
32964;SDS011;19317;48.226;11.686;2023-03-01T19:53:20;12.40;;;9.00;;
32964;SDS011;19317;48.226;11.686;2023-03-01T19:58:12;11.50;;;8.87;;
32964;SDS011;19317;48.226;11.686;2023-03-01T20:03:03;15.30;;;8.90;;
32964;SDS011;19317;48.226;11.686;2023-03-01T20:07:53;14.47;;;8.50;;
32964;SDS011;19317;48.226;11.686;2023-03-01T20:12:44;14.47;;;8.40;;
32964;SDS011;19317;48.226;11.686;2023-03-01T20:17:35;11.40;;;7.93;;
32964;SDS011;19317;48.226;11.686;2023-03-01T20:22:25;14.13;;;9.13;;
32964;SDS011;19317;48.226;11.686;2023-03-01T20:27:16;12.63;;;8.30;;
32964;SDS011;19317;48.226;11.686;2023-03-01T20:32:06;12.77;;;8.50;;
32964;SDS011;19317;48.226;11.686;2023-03-01T20:36:57;12.67;;;9.03;;
32964;SDS011;19317;48.226;11.686;2023-03-01T20:41:47;12.97;;;8.60;;
32964;SDS011;19317;48.226;11.686;2023-03-01T20:46:37;14.80;;;9.10;;
32964;SDS011;19317;48.226;11.686;2023-03-01T20:51:28;14.80;;;9.13;;
32964;SDS011;19317;48.226;11.686;2023-03-01T20:56:19;12.30;;;8.87;;
32964;SDS011;19317;48.226;11.686;2023-03-01T21:01:14;14.60;;;8.67;;
32964;SDS011;19317;48.226;11.686;2023-03-01T21:06:06;14.73;;;8.93;;
32964;SDS011;19317;48.226;11.686;2023-03-01T21:10:57;15.40;;;9.33;;
32964;SDS011;19317;48.226;11.686;2023-03-01T21:15:51;14.17;;;9.80;;
32964;SDS011;19317;48.226;11.686;2023-03-01T21:20:41;15.57;;;9.00;;
32964;SDS011;19317;48.226;11.686;2023-03-01T21:25:32;12.37;;;9.33;;
32964;SDS011;19317;48.226;11.686;2023-03-01T21:30:22;11.63;;;9.20;;
32964;SDS011;19317;48.226;11.686;2023-03-01T21:35:13;14.57;;;9.80;;
32964;SDS011;19317;48.226;11.686;2023-03-01T21:40:04;14.57;;;8.97;;
32964;SDS011;19317;48.226;11.686;2023-03-01T21:44:54;13.63;;;8.90;;
32964;SDS011;19317;48.226;11.686;2023-03-01T21:49:45;13.00;;;8.93;;
32964;SDS011;19317;48.226;11.686;2023-03-01T21:54:35;14.13;;;8.97;;
32964;SDS011;19317;48.226;11.686;2023-03-01T21:59:26;12.63;;;9.40;;
32964;SDS011;19317;48.226;11.686;2023-03-01T22:04:17;12.70;;;9.17;;
32964;SDS011;19317;48.226;11.686;2023-03-01T22:14:08;12.83;;;9.63;;
32964;SDS011;19317;48.226;11.686;2023-03-01T22:18:58;15.27;;;9.73;;
32964;SDS011;19317;48.226;11.686;2023-03-01T22:23:50;14.53;;;9.53;;
32964;SDS011;19317;48.226;11.686;2023-03-01T22:28:41;14.10;;;9.90;;
32964;SDS011;19317;48.226;11.686;2023-03-01T22:33:31;14.83;;;9.87;;
32964;SDS011;19317;48.226;11.686;2023-03-01T22:38:22;14.87;;;9.20;;
32964;SDS011;19317;48.226;11.686;2023-03-01T22:43:12;16.27;;;10.27;;
32964;SDS011;19317;48.226;11.686;2023-03-01T22:48:03;15.73;;;10.87;;
32964;SDS011;19317;48.226;11.686;2023-03-01T22:52:53;16.47;;;11.10;;
32964;SDS011;19317;48.226;11.686;2023-03-01T22:57:48;14.47;;;10.33;;
32964;SDS011;19317;48.226;11.686;2023-03-01T23:02:39;14.73;;;10.40;;
32964;SDS011;19317;48.226;11.686;2023-03-01T23:07:29;17.37;;;10.53;;
32964;SDS011;19317;48.226;11.686;2023-03-01T23:12:20;14.47;;;10.23;;
32964;SDS011;19317;48.226;11.686;2023-03-01T23:17:10;17.20;;;11.10;;
32964;SDS011;19317;48.226;11.686;2023-03-01T23:22:01;16.57;;;11.00;;
32964;SDS011;19317;48.226;11.686;2023-03-01T23:26:51;16.37;;;10.57;;
32964;SDS011;19317;48.226;11.686;2023-03-01T23:31:41;18.67;;;10.97;;
32964;SDS011;19317;48.226;11.686;2023-03-01T23:36:32;17.53;;;11.20;;
32964;SDS011;19317;48.226;11.686;2023-03-01T23:41:24;17.43;;;11.33;;
32964;SDS011;19317;48.226;11.686;2023-03-01T23:46:17;15.07;;;11.07;;
32964;SDS011;19317;48.226;11.686;2023-03-01T23:51:08;16.20;;;10.47;;
32964;SDS011;19317;48.226;11.686;2023-03-01T23:55:59;18.07;;;11.07;;
